sensor_id;sensor_type;location;lat;lon;timestamp;temperature;humidity
34279;DHT22;20538;51.528;9.942;2024-01-11T00:00:13;-8.00;99.90
34279;DHT22;20538;51.528;9.942;2024-01-11T00:02:38;-8.00;99.90
34279;DHT22;20538;51.528;9.942;2024-01-11T00:05:04;-8.00;99.90
34279;DHT22;20538;51.528;9.942;2024-01-11T00:07:30;-7.90;99.90
34279;DHT22;20538;51.528;9.942;2024-01-11T00:09:56;-8.00;99.90
34279;DHT22;20538;51.528;9.942;2024-01-11T00:12:21;-8.00;99.90
34279;DHT22;20538;51.528;9.942;2024-01-11T00:14:47;-8.10;99.90
34279;DHT22;20538;51.528;9.942;2024-01-11T00:17:12;-8.10;99.90
34279;DHT22;20538;51.528;9.942;2024-01-11T00:19:38;-7.90;99.90
34279;DHT22;20538;51.528;9.942;2024-01-11T00:22:04;-8.00;99.90
34279;DHT22;20538;51.528;9.942;2024-01-11T00:24:29;-8.10;99.90
34279;DHT22;20538;51.528;9.942;2024-01-11T00:26:55;-8.10;99.90
34279;DHT22;20538;51.528;9.942;2024-01-11T00:29:20;-8.10;99.90
34279;DHT22;20538;51.528;9.942;2024-01-11T00:31:46;-8.20;99.90
34279;DHT22;20538;51.528;9.942;2024-01-11T00:34:12;-8.20;99.90
34279;DHT22;20538;51.528;9.942;2024-01-11T00:36:37;-8.20;99.90
34279;DHT22;20538;51.528;9.942;2024-01-11T00:39:03;-8.30;99.90
34279;DHT22;20538;51.528;9.942;2024-01-11T00:41:29;-8.30;99.90
34279;DHT22;20538;51.528;9.942;2024-01-11T00:43:55;-8.30;99.90
34279;DHT22;20538;51.528;9.942;2024-01-11T00:46:20;-8.30;99.90
34279;DHT22;20538;51.528;9.942;2024-01-11T00:48:46;-8.30;99.90
34279;DHT22;20538;51.528;9.942;2024-01-11T00:51:11;-8.30;99.90
34279;DHT22;20538;51.528;9.942;2024-01-11T00:53:37;-8.30;99.90
34279;DHT22;20538;51.528;9.942;2024-01-11T00:56:03;-8.40;99.90
34279;DHT22;20538;51.528;9.942;2024-01-11T00:58:28;-8.50;99.90
34279;DHT22;20538;51.528;9.942;2024-01-11T01:00:55;-8.50;99.90
34279;DHT22;20538;51.528;9.942;2024-01-11T01:03:21;-8.50;99.90
34279;DHT22;20538;51.528;9.942;2024-01-11T01:05:47;-8.50;99.90
34279;DHT22;20538;51.528;9.942;2024-01-11T01:08:13;-8.50;99.90
34279;DHT22;20538;51.528;9.942;2024-01-11T01:10:38;-8.40;99.90
34279;DHT22;20538;51.528;9.942;2024-01-11T01:13:05;-8.40;99.90
34279;DHT22;20538;51.528;9.942;2024-01-11T01:15:30;-8.40;99.90
34279;DHT22;20538;51.528;9.942;2024-01-11T01:17:56;-8.40;99.90
34279;DHT22;20538;51.528;9.942;2024-01-11T01:21:29;-8.40;99.90
34279;DHT22;20538;51.528;9.942;2024-01-11T01:23:54;-8.50;99.90
34279;DHT22;20538;51.528;9.942;2024-01-11T01:26:20;-8.50;99.90
34279;DHT22;20538;51.528;9.942;2024-01-11T01:28:46;-8.50;99.90
34279;DHT22;20538;51.528;9.942;2024-01-11T01:31:11;-8.50;99.90
34279;DHT22;20538;51.528;9.942;2024-01-11T01:33:37;-8.50;99.90
34279;DHT22;20538;51.528;9.942;2024-01-11T01:36:03;-8.50;99.90
34279;DHT22;20538;51.528;9.942;2024-01-11T01:38:29;-8.40;99.90
34279;DHT22;20538;51.528;9.942;2024-01-11T01:40:55;-8.30;99.90
34279;DHT22;20538;51.528;9.942;2024-01-11T01:43:21;-8.40;99.90
34279;DHT22;20538;51.528;9.942;2024-01-11T01:45:47;-8.50;99.90
34279;DHT22;20538;51.528;9.942;2024-01-11T01:48:13;-8.50;99.90
34279;DHT22;20538;51.528;9.942;2024-01-11T01:50:38;-8.50;99.90
34279;DHT22;20538;51.528;9.942;2024-01-11T01:53:04;-8.50;99.90
34279;DHT22;20538;51.528;9.942;2024-01-11T01:55:30;-8.40;99.90
34279;DHT22;20538;51.528;9.942;2024-01-11T01:57:57;-8.50;99.90
34279;DHT22;20538;51.528;9.942;2024-01-11T02:00:23;-8.60;99.90
34279;DHT22;20538;51.528;9.942;2024-01-11T02:02:50;-8.70;99.90
34279;DHT22;20538;51.528;9.942;2024-01-11T02:05:18;-8.70;99.90
34279;DHT22;20538;51.528;9.942;2024-01-11T02:07:44;-8.60;99.90
34279;DHT22;20538;51.528;9.942;2024-01-11T02:10:10;-8.60;99.90
34279;DHT22;20538;51.528;9.942;2024-01-11T02:12:36;-8.70;99.90
34279;DHT22;20538;51.528;9.942;2024-01-11T02:15:03;-8.70;99.90
34279;DHT22;20538;51.528;9.942;2024-01-11T02:17:30;-8.70;99.90
34279;DHT22;20538;51.528;9.942;2024-01-11T02:19:56;-8.70;99.90
34279;DHT22;20538;51.528;9.942;2024-01-11T02:22:29;-8.70;99.90
34279;DHT22;20538;51.528;9.942;2024-01-11T02:24:55;-8.80;99.90
34279;DHT22;20538;51.528;9.942;2024-01-11T02:27:23;-8.80;99.90
34279;DHT22;20538;51.528;9.942;2024-01-11T02:29:48;-8.70;99.90
34279;DHT22;20538;51.528;9.942;2024-01-11T02:32:14;-8.70;99.90
34279;DHT22;20538;51.528;9.942;2024-01-11T02:34:40;-8.80;99.90
34279;DHT22;20538;51.528;9.942;2024-01-11T02:37:06;-8.70;99.90
34279;DHT22;20538;51.528;9.942;2024-01-11T02:39:32;-8.60;99.90
34279;DHT22;20538;51.528;9.942;2024-01-11T02:42:00;-8.70;99.90
34279;DHT22;20538;51.528;9.942;2024-01-11T02:44:25;-8.70;99.90
34279;DHT22;20538;51.528;9.942;2024-01-11T02:46:51;-8.80;99.90
34279;DHT22;20538;51.528;9.942;2024-01-11T02:49:17;-8.70;99.90
34279;DHT22;20538;51.528;9.942;2024-01-11T02:51:43;-8.70;99.90
34279;DHT22;20538;51.528;9.942;2024-01-11T02:54:08;-8.70;99.90
34279;DHT22;20538;51.528;9.942;2024-01-11T02:56:34;-8.80;99.90
34279;DHT22;20538;51.528;9.942;2024-01-11T02:58:59;-8.70;99.90
34279;DHT22;20538;51.528;9.942;2024-01-11T03:01:25;-8.80;99.90
34279;DHT22;20538;51.528;9.942;2024-01-11T03:03:51;-8.80;99.90
34279;DHT22;20538;51.528;9.942;2024-01-11T03:06:16;-8.80;99.90
34279;DHT22;20538;51.528;9.942;2024-01-11T03:08:49;-8.80;99.90
34279;DHT22;20538;51.528;9.942;2024-01-11T03:11:15;-8.80;99.90
34279;DHT22;20538;51.528;9.942;2024-01-11T03:13:44;-8.80;99.90
34279;DHT22;20538;51.528;9.942;2024-01-11T03:16:10;-8.80;99.90
34279;DHT22;20538;51.528;9.942;2024-01-11T03:18:35;-8.80;99.90
34279;DHT22;20538;51.528;9.942;2024-01-11T03:21:01;-8.80;99.90
34279;DHT22;20538;51.528;9.942;2024-01-11T03:23:26;-8.90;99.90
34279;DHT22;20538;51.528;9.942;2024-01-11T03:25:52;-8.80;99.90
34279;DHT22;20538;51.528;9.942;2024-01-11T03:28:18;-8.80;99.90
34279;DHT22;20538;51.528;9.942;2024-01-11T03:30:43;-8.90;99.90
34279;DHT22;20538;51.528;9.942;2024-01-11T03:33:09;-8.90;99.90
34279;DHT22;20538;51.528;9.942;2024-01-11T03:35:34;-8.90;99.90
34279;DHT22;20538;51.528;9.942;2024-01-11T03:38:00;-8.90;99.90
34279;DHT22;20538;51.528;9.942;2024-01-11T03:40:26;-8.90;99.90
34279;DHT22;20538;51.528;9.942;2024-01-11T03:42:52;-8.90;99.90
34279;DHT22;20538;51.528;9.942;2024-01-11T03:45:18;-8.90;99.90
34279;DHT22;20538;51.528;9.942;2024-01-11T03:47:44;-8.90;99.90
34279;DHT22;20538;51.528;9.942;2024-01-11T03:50:10;-8.80;99.90
34279;DHT22;20538;51.528;9.942;2024-01-11T03:52:35;-8.80;99.90
34279;DHT22;20538;51.528;9.942;2024-01-11T03:55:01;-8.90;99.90
34279;DHT22;20538;51.528;9.942;2024-01-11T03:57:27;-8.90;99.90
34279;DHT22;20538;51.528;9.942;2024-01-11T03:59:52;-8.80;99.90
34279;DHT22;20538;51.528;9.942;2024-01-11T04:02:19;-8.80;99.90
34279;DHT22;20538;51.528;9.942;2024-01-11T04:04:44;-8.90;99.90
34279;DHT22;20538;51.528;9.942;2024-01-11T04:07:10;-8.90;99.90
34279;DHT22;20538;51.528;9.942;2024-01-11T04:09:38;-8.80;99.90
34279;DHT22;20538;51.528;9.942;2024-01-11T04:12:04;-8.70;99.90
34279;DHT22;20538;51.528;9.942;2024-01-11T04:14:30;-8.80;99.90
34279;DHT22;20538;51.528;9.942;2024-01-11T04:16:56;-8.80;99.90
34279;DHT22;20538;51.528;9.942;2024-01-11T04:19:22;-8.80;99.90
34279;DHT22;20538;51.528;9.942;2024-01-11T04:21:47;-8.80;99.90
34279;DHT22;20538;51.528;9.942;2024-01-11T04:24:13;-8.70;99.90
34279;DHT22;20538;51.528;9.942;2024-01-11T04:26:38;-8.70;99.90
34279;DHT22;20538;51.528;9.942;2024-01-11T04:29:05;-8.80;99.90
34279;DHT22;20538;51.528;9.942;2024-01-11T04:31:30;-8.80;99.90
34279;DHT22;20538;51.528;9.942;2024-01-11T04:33:56;-8.70;99.90
34279;DHT22;20538;51.528;9.942;2024-01-11T04:36:22;-8.80;99.90
34279;DHT22;20538;51.528;9.942;2024-01-11T04:38:47;-8.60;99.90
34279;DHT22;20538;51.528;9.942;2024-01-11T04:41:14;-8.60;99.90
34279;DHT22;20538;51.528;9.942;2024-01-11T04:43:43;-8.60;99.90
34279;DHT22;20538;51.528;9.942;2024-01-11T04:46:20;-8.60;99.90
34279;DHT22;20538;51.528;9.942;2024-01-11T04:48:46;-8.70;99.90
34279;DHT22;20538;51.528;9.942;2024-01-11T04:51:13;-8.70;99.90
34279;DHT22;20538;51.528;9.942;2024-01-11T04:53:40;-8.70;99.90
34279;DHT22;20538;51.528;9.942;2024-01-11T04:56:09;-8.70;99.90
34279;DHT22;20538;51.528;9.942;2024-01-11T04:58:36;-8.80;99.90
34279;DHT22;20538;51.528;9.942;2024-01-11T05:01:04;-8.70;99.90
34279;DHT22;20538;51.528;9.942;2024-01-11T05:03:30;-8.80;99.90
34279;DHT22;20538;51.528;9.942;2024-01-11T05:05:57;-8.80;99.90
34279;DHT22;20538;51.528;9.942;2024-01-11T05:08:23;-8.70;99.90
34279;DHT22;20538;51.528;9.942;2024-01-11T05:10:49;-8.70;99.90
34279;DHT22;20538;51.528;9.942;2024-01-11T05:13:15;-8.70;99.90
34279;DHT22;20538;51.528;9.942;2024-01-11T05:15:40;-8.70;99.90
34279;DHT22;20538;51.528;9.942;2024-01-11T05:18:06;-8.70;99.90
34279;DHT22;20538;51.528;9.942;2024-01-11T05:20:32;-8.70;99.90
34279;DHT22;20538;51.528;9.942;2024-01-11T05:22:57;-8.60;99.90
34279;DHT22;20538;51.528;9.942;2024-01-11T05:25:23;-8.60;99.90
34279;DHT22;20538;51.528;9.942;2024-01-11T05:27:48;-8.70;99.90
34279;DHT22;20538;51.528;9.942;2024-01-11T05:30:14;-8.70;99.90
34279;DHT22;20538;51.528;9.942;2024-01-11T05:32:40;-8.70;99.90
34279;DHT22;20538;51.528;9.942;2024-01-11T05:35:05;-8.70;99.90
34279;DHT22;20538;51.528;9.942;2024-01-11T05:37:34;-8.70;99.90
34279;DHT22;20538;51.528;9.942;2024-01-11T05:39:59;-8.80;99.90
34279;DHT22;20538;51.528;9.942;2024-01-11T05:42:25;-8.80;99.90
34279;DHT22;20538;51.528;9.942;2024-01-11T05:44:52;-8.90;99.90
34279;DHT22;20538;51.528;9.942;2024-01-11T05:47:20;-8.90;99.90
34279;DHT22;20538;51.528;9.942;2024-01-11T05:49:45;-8.90;99.90
34279;DHT22;20538;51.528;9.942;2024-01-11T05:52:13;-8.90;99.90
34279;DHT22;20538;51.528;9.942;2024-01-11T05:54:38;-8.90;99.90
34279;DHT22;20538;51.528;9.942;2024-01-11T05:57:04;-8.90;99.90
34279;DHT22;20538;51.528;9.942;2024-01-11T05:59:30;-8.90;99.90
34279;DHT22;20538;51.528;9.942;2024-01-11T06:01:55;-8.80;99.90
34279;DHT22;20538;51.528;9.942;2024-01-11T06:04:25;-8.90;99.90
34279;DHT22;20538;51.528;9.942;2024-01-11T06:06:51;-8.80;99.90
34279;DHT22;20538;51.528;9.942;2024-01-11T06:09:17;-8.80;99.90
34279;DHT22;20538;51.528;9.942;2024-01-11T06:11:42;-8.90;99.90
34279;DHT22;20538;51.528;9.942;2024-01-11T06:14:08;-8.90;99.90
34279;DHT22;20538;51.528;9.942;2024-01-11T06:16:34;-8.90;99.90
34279;DHT22;20538;51.528;9.942;2024-01-11T06:19:00;-8.80;99.90
34279;DHT22;20538;51.528;9.942;2024-01-11T06:21:25;-8.80;99.90
34279;DHT22;20538;51.528;9.942;2024-01-11T06:23:51;-8.80;99.90
34279;DHT22;20538;51.528;9.942;2024-01-11T06:26:17;-8.70;99.90
34279;DHT22;20538;51.528;9.942;2024-01-11T06:28:42;-8.80;99.90
34279;DHT22;20538;51.528;9.942;2024-01-11T06:31:09;-8.80;99.90
34279;DHT22;20538;51.528;9.942;2024-01-11T06:33:35;-8.80;99.90
34279;DHT22;20538;51.528;9.942;2024-01-11T06:36:06;-8.70;99.90
34279;DHT22;20538;51.528;9.942;2024-01-11T06:38:32;-8.70;99.90
34279;DHT22;20538;51.528;9.942;2024-01-11T06:40:58;-8.60;99.90
34279;DHT22;20538;51.528;9.942;2024-01-11T06:43:24;-8.60;99.90
34279;DHT22;20538;51.528;9.942;2024-01-11T06:45:49;-8.70;99.90
34279;DHT22;20538;51.528;9.942;2024-01-11T06:48:15;-8.70;99.90
34279;DHT22;20538;51.528;9.942;2024-01-11T06:50:41;-8.70;99.90
34279;DHT22;20538;51.528;9.942;2024-01-11T06:53:07;-8.70;99.90
34279;DHT22;20538;51.528;9.942;2024-01-11T06:55:33;-8.70;99.90
34279;DHT22;20538;51.528;9.942;2024-01-11T06:57:58;-8.60;99.90
34279;DHT22;20538;51.528;9.942;2024-01-11T07:00:24;-8.60;99.90
34279;DHT22;20538;51.528;9.942;2024-01-11T07:02:51;-8.60;99.90
34279;DHT22;20538;51.528;9.942;2024-01-11T07:05:19;-8.60;99.90
34279;DHT22;20538;51.528;9.942;2024-01-11T07:07:44;-8.60;99.90
34279;DHT22;20538;51.528;9.942;2024-01-11T07:10:10;-8.60;99.90
34279;DHT22;20538;51.528;9.942;2024-01-11T07:12:36;-8.60;99.90
34279;DHT22;20538;51.528;9.942;2024-01-11T07:15:03;-8.50;99.90
34279;DHT22;20538;51.528;9.942;2024-01-11T07:17:30;-8.50;99.90
34279;DHT22;20538;51.528;9.942;2024-01-11T07:19:56;-8.50;99.90
34279;DHT22;20538;51.528;9.942;2024-01-11T07:22:22;-8.40;99.90
34279;DHT22;20538;51.528;9.942;2024-01-11T07:24:47;-8.40;99.90
34279;DHT22;20538;51.528;9.942;2024-01-11T07:27:13;-8.40;99.90
34279;DHT22;20538;51.528;9.942;2024-01-11T07:29:38;-8.30;99.90
34279;DHT22;20538;51.528;9.942;2024-01-11T07:32:04;-8.30;99.90
34279;DHT22;20538;51.528;9.942;2024-01-11T07:34:30;-8.30;99.90
34279;DHT22;20538;51.528;9.942;2024-01-11T07:36:56;-8.40;99.90
34279;DHT22;20538;51.528;9.942;2024-01-11T07:39:24;-8.40;99.90
34279;DHT22;20538;51.528;9.942;2024-01-11T07:41:50;-8.30;99.90
34279;DHT22;20538;51.528;9.942;2024-01-11T07:44:15;-8.30;99.90
34279;DHT22;20538;51.528;9.942;2024-01-11T07:46:42;-8.30;99.90
34279;DHT22;20538;51.528;9.942;2024-01-11T07:49:08;-8.20;99.90
34279;DHT22;20538;51.528;9.942;2024-01-11T07:51:34;-8.30;99.90
34279;DHT22;20538;51.528;9.942;2024-01-11T07:54:02;-8.30;99.90
34279;DHT22;20538;51.528;9.942;2024-01-11T07:56:28;-8.30;99.90
34279;DHT22;20538;51.528;9.942;2024-01-11T07:58:54;-8.30;99.90
34279;DHT22;20538;51.528;9.942;2024-01-11T08:01:20;-8.20;99.90
34279;DHT22;20538;51.528;9.942;2024-01-11T08:03:45;-8.20;99.90
34279;DHT22;20538;51.528;9.942;2024-01-11T08:06:12;-8.20;99.90
34279;DHT22;20538;51.528;9.942;2024-01-11T08:08:38;-8.20;99.90
34279;DHT22;20538;51.528;9.942;2024-01-11T08:11:10;-8.20;99.90
34279;DHT22;20538;51.528;9.942;2024-01-11T08:13:37;-8.20;99.90
34279;DHT22;20538;51.528;9.942;2024-01-11T08:16:04;-8.20;99.90
34279;DHT22;20538;51.528;9.942;2024-01-11T08:18:33;-8.10;99.90
34279;DHT22;20538;51.528;9.942;2024-01-11T08:20:58;-8.10;99.90
34279;DHT22;20538;51.528;9.942;2024-01-11T08:23:24;-8.00;99.90
34279;DHT22;20538;51.528;9.942;2024-01-11T08:25:52;-7.90;99.90
34279;DHT22;20538;51.528;9.942;2024-01-11T08:28:21;-7.90;99.90
34279;DHT22;20538;51.528;9.942;2024-01-11T08:30:46;-7.90;99.90
34279;DHT22;20538;51.528;9.942;2024-01-11T08:33:12;-7.80;99.90
34279;DHT22;20538;51.528;9.942;2024-01-11T08:35:39;-7.70;99.90
34279;DHT22;20538;51.528;9.942;2024-01-11T08:38:06;-7.70;99.90
34279;DHT22;20538;51.528;9.942;2024-01-11T08:40:31;-7.70;99.90
34279;DHT22;20538;51.528;9.942;2024-01-11T08:42:57;-7.60;99.90
34279;DHT22;20538;51.528;9.942;2024-01-11T08:45:23;-7.60;99.90
34279;DHT22;20538;51.528;9.942;2024-01-11T08:47:49;-7.50;99.90
34279;DHT22;20538;51.528;9.942;2024-01-11T08:50:15;-7.50;99.90
34279;DHT22;20538;51.528;9.942;2024-01-11T08:52:41;-7.40;99.90
34279;DHT22;20538;51.528;9.942;2024-01-11T08:55:07;-7.30;99.90
34279;DHT22;20538;51.528;9.942;2024-01-11T08:57:33;-7.20;99.90
34279;DHT22;20538;51.528;9.942;2024-01-11T09:00:02;-7.20;99.90
34279;DHT22;20538;51.528;9.942;2024-01-11T09:02:27;-7.10;99.90
34279;DHT22;20538;51.528;9.942;2024-01-11T09:04:53;-7.00;99.90
34279;DHT22;20538;51.528;9.942;2024-01-11T09:07:18;-6.90;99.90
34279;DHT22;20538;51.528;9.942;2024-01-11T09:09:44;-6.70;99.90
34279;DHT22;20538;51.528;9.942;2024-01-11T09:12:11;-6.70;99.90
34279;DHT22;20538;51.528;9.942;2024-01-11T09:14:37;-6.60;99.90
34279;DHT22;20538;51.528;9.942;2024-01-11T09:17:02;-6.50;99.90
34279;DHT22;20538;51.528;9.942;2024-01-11T09:19:32;-6.50;99.90
34279;DHT22;20538;51.528;9.942;2024-01-11T09:21:59;-6.50;99.90
34279;DHT22;20538;51.528;9.942;2024-01-11T09:24:25;-6.40;99.90
34279;DHT22;20538;51.528;9.942;2024-01-11T09:26:51;-6.30;99.90
34279;DHT22;20538;51.528;9.942;2024-01-11T09:29:16;-6.30;99.90
34279;DHT22;20538;51.528;9.942;2024-01-11T09:31:42;-6.20;99.90
34279;DHT22;20538;51.528;9.942;2024-01-11T09:34:08;-6.10;99.90
34279;DHT22;20538;51.528;9.942;2024-01-11T09:36:34;-6.10;99.90
34279;DHT22;20538;51.528;9.942;2024-01-11T09:38:59;-6.00;99.90
34279;DHT22;20538;51.528;9.942;2024-01-11T09:41:25;-5.90;99.90
34279;DHT22;20538;51.528;9.942;2024-01-11T09:43:54;-5.80;99.90
34279;DHT22;20538;51.528;9.942;2024-01-11T09:46:20;-5.70;99.90
34279;DHT22;20538;51.528;9.942;2024-01-11T09:48:47;-5.70;99.90
34279;DHT22;20538;51.528;9.942;2024-01-11T09:51:13;-5.60;99.90
34279;DHT22;20538;51.528;9.942;2024-01-11T09:53:40;-5.40;99.90
34279;DHT22;20538;51.528;9.942;2024-01-11T09:56:08;-5.40;99.90
34279;DHT22;20538;51.528;9.942;2024-01-11T09:58:38;-5.40;99.90
34279;DHT22;20538;51.528;9.942;2024-01-11T10:01:09;-5.30;99.90
34279;DHT22;20538;51.528;9.942;2024-01-11T10:03:35;-5.20;99.90
34279;DHT22;20538;51.528;9.942;2024-01-11T10:06:02;-5.10;99.90
34279;DHT22;20538;51.528;9.942;2024-01-11T10:08:29;-5.10;99.90
34279;DHT22;20538;51.528;9.942;2024-01-11T10:10:55;-5.00;99.90
34279;DHT22;20538;51.528;9.942;2024-01-11T10:13:28;-5.00;99.90
34279;DHT22;20538;51.528;9.942;2024-01-11T10:16:05;-4.90;99.90
34279;DHT22;20538;51.528;9.942;2024-01-11T10:18:32;-4.80;99.90
34279;DHT22;20538;51.528;9.942;2024-01-11T10:20:57;-4.70;99.90
34279;DHT22;20538;51.528;9.942;2024-01-11T10:23:23;-4.70;99.90
34279;DHT22;20538;51.528;9.942;2024-01-11T10:25:49;-4.60;99.90
34279;DHT22;20538;51.528;9.942;2024-01-11T10:28:15;-4.40;99.90
34279;DHT22;20538;51.528;9.942;2024-01-11T10:30:41;-4.40;99.90
34279;DHT22;20538;51.528;9.942;2024-01-11T10:33:10;-4.40;99.90
34279;DHT22;20538;51.528;9.942;2024-01-11T10:35:36;-4.30;99.90
34279;DHT22;20538;51.528;9.942;2024-01-11T10:38:04;-4.30;99.90
34279;DHT22;20538;51.528;9.942;2024-01-11T10:40:33;-4.30;99.90
34279;DHT22;20538;51.528;9.942;2024-01-11T10:43:01;-4.20;99.90
34279;DHT22;20538;51.528;9.942;2024-01-11T10:45:28;-4.00;99.90
34279;DHT22;20538;51.528;9.942;2024-01-11T10:48:01;-4.00;99.90
34279;DHT22;20538;51.528;9.942;2024-01-11T10:50:30;-3.90;99.90
34279;DHT22;20538;51.528;9.942;2024-01-11T10:55:50;-3.80;99.90
34279;DHT22;20538;51.528;9.942;2024-01-11T10:58:16;-3.80;99.90
34279;DHT22;20538;51.528;9.942;2024-01-11T11:00:44;-3.80;99.90
34279;DHT22;20538;51.528;9.942;2024-01-11T11:03:11;-3.70;99.90
34279;DHT22;20538;51.528;9.942;2024-01-11T11:05:38;-3.60;99.90
34279;DHT22;20538;51.528;9.942;2024-01-11T11:08:07;-3.60;99.90
34279;DHT22;20538;51.528;9.942;2024-01-11T11:10:34;-3.50;99.90
34279;DHT22;20538;51.528;9.942;2024-01-11T11:13:00;-3.60;99.90
34279;DHT22;20538;51.528;9.942;2024-01-11T11:15:29;-3.50;99.90
34279;DHT22;20538;51.528;9.942;2024-01-11T11:17:54;-3.40;99.90
34279;DHT22;20538;51.528;9.942;2024-01-11T11:20:20;-3.40;99.90
34279;DHT22;20538;51.528;9.942;2024-01-11T11:23:05;-3.30;99.90
34279;DHT22;20538;51.528;9.942;2024-01-11T11:25:32;-3.20;99.90
34279;DHT22;20538;51.528;9.942;2024-01-11T11:28:00;-3.20;99.90
34279;DHT22;20538;51.528;9.942;2024-01-11T11:30:32;-3.20;99.90
34279;DHT22;20538;51.528;9.942;2024-01-11T11:33:08;-3.20;99.90
34279;DHT22;20538;51.528;9.942;2024-01-11T11:35:34;-3.30;99.90
34279;DHT22;20538;51.528;9.942;2024-01-11T11:37:59;-3.30;99.90
34279;DHT22;20538;51.528;9.942;2024-01-11T11:40:40;-3.30;99.90
34279;DHT22;20538;51.528;9.942;2024-01-11T11:43:08;-3.20;99.90
34279;DHT22;20538;51.528;9.942;2024-01-11T11:45:34;-3.20;99.90
34279;DHT22;20538;51.528;9.942;2024-01-11T11:48:01;-3.10;99.90
34279;DHT22;20538;51.528;9.942;2024-01-11T11:50:29;-3.10;99.90
34279;DHT22;20538;51.528;9.942;2024-01-11T11:52:56;-3.10;99.90
34279;DHT22;20538;51.528;9.942;2024-01-11T11:55:25;-3.10;99.90
34279;DHT22;20538;51.528;9.942;2024-01-11T11:57:51;-2.90;99.90
34279;DHT22;20538;51.528;9.942;2024-01-11T12:00:19;-2.80;99.90
34279;DHT22;20538;51.528;9.942;2024-01-11T12:02:47;-2.60;99.90
34279;DHT22;20538;51.528;9.942;2024-01-11T12:05:13;-2.60;99.90
34279;DHT22;20538;51.528;9.942;2024-01-11T12:07:38;-2.50;99.90
34279;DHT22;20538;51.528;9.942;2024-01-11T12:10:05;-2.40;99.90
34279;DHT22;20538;51.528;9.942;2024-01-11T12:12:32;-2.20;99.90
34279;DHT22;20538;51.528;9.942;2024-01-11T12:14:59;-2.20;99.90
34279;DHT22;20538;51.528;9.942;2024-01-11T12:17:24;-2.10;99.90
34279;DHT22;20538;51.528;9.942;2024-01-11T12:19:53;-2.00;99.90
34279;DHT22;20538;51.528;9.942;2024-01-11T12:22:19;-1.90;99.90
34279;DHT22;20538;51.528;9.942;2024-01-11T12:24:46;-1.80;99.90
34279;DHT22;20538;51.528;9.942;2024-01-11T12:27:12;-1.80;99.90
34279;DHT22;20538;51.528;9.942;2024-01-11T12:29:39;-1.80;99.90
34279;DHT22;20538;51.528;9.942;2024-01-11T12:32:05;-1.70;99.90
34279;DHT22;20538;51.528;9.942;2024-01-11T12:34:31;-1.60;99.90
34279;DHT22;20538;51.528;9.942;2024-01-11T12:36:58;-1.80;99.90
34279;DHT22;20538;51.528;9.942;2024-01-11T12:39:26;-1.80;99.90
34279;DHT22;20538;51.528;9.942;2024-01-11T12:41:54;-1.70;99.90
34279;DHT22;20538;51.528;9.942;2024-01-11T12:44:23;-1.50;99.90
34279;DHT22;20538;51.528;9.942;2024-01-11T12:46:49;-1.30;99.90
34279;DHT22;20538;51.528;9.942;2024-01-11T12:49:15;-1.30;99.90
34279;DHT22;20538;51.528;9.942;2024-01-11T12:51:41;-1.30;99.90
34279;DHT22;20538;51.528;9.942;2024-01-11T12:54:13;-1.50;99.90
34279;DHT22;20538;51.528;9.942;2024-01-11T12:56:43;-1.50;99.90
34279;DHT22;20538;51.528;9.942;2024-01-11T12:59:09;-1.50;99.90
34279;DHT22;20538;51.528;9.942;2024-01-11T13:01:37;-1.40;99.90
34279;DHT22;20538;51.528;9.942;2024-01-11T13:04:03;-1.30;99.90
34279;DHT22;20538;51.528;9.942;2024-01-11T13:06:32;-1.30;99.90
34279;DHT22;20538;51.528;9.942;2024-01-11T13:09:00;-1.20;99.90
34279;DHT22;20538;51.528;9.942;2024-01-11T13:11:25;-1.20;99.90
34279;DHT22;20538;51.528;9.942;2024-01-11T13:13:51;-1.30;99.90
34279;DHT22;20538;51.528;9.942;2024-01-11T13:16:17;-1.30;99.90
34279;DHT22;20538;51.528;9.942;2024-01-11T13:18:44;-1.20;99.90
34279;DHT22;20538;51.528;9.942;2024-01-11T13:21:10;-1.20;99.90
34279;DHT22;20538;51.528;9.942;2024-01-11T13:23:37;-1.10;99.90
34279;DHT22;20538;51.528;9.942;2024-01-11T13:26:03;-1.20;99.90
34279;DHT22;20538;51.528;9.942;2024-01-11T13:28:30;-0.90;99.90
34279;DHT22;20538;51.528;9.942;2024-01-11T13:30:55;-0.80;99.90
34279;DHT22;20538;51.528;9.942;2024-01-11T13:33:22;-0.90;99.90
34279;DHT22;20538;51.528;9.942;2024-01-11T13:35:49;-1.10;99.90
34279;DHT22;20538;51.528;9.942;2024-01-11T13:38:15;-1.20;99.90
34279;DHT22;20538;51.528;9.942;2024-01-11T13:40:41;-1.20;99.90
34279;DHT22;20538;51.528;9.942;2024-01-11T13:43:09;-1.10;99.90
34279;DHT22;20538;51.528;9.942;2024-01-11T13:45:35;-1.10;99.90
34279;DHT22;20538;51.528;9.942;2024-01-11T13:48:05;-1.00;99.90
34279;DHT22;20538;51.528;9.942;2024-01-11T13:50:31;-1.00;99.90
34279;DHT22;20538;51.528;9.942;2024-01-11T13:52:57;-0.90;99.90
34279;DHT22;20538;51.528;9.942;2024-01-11T13:55:23;-1.00;99.90
34279;DHT22;20538;51.528;9.942;2024-01-11T13:57:52;-1.00;99.90
34279;DHT22;20538;51.528;9.942;2024-01-11T14:00:19;-1.10;99.90
34279;DHT22;20538;51.528;9.942;2024-01-11T14:02:45;-1.10;99.90
34279;DHT22;20538;51.528;9.942;2024-01-11T14:05:12;-1.10;99.90
34279;DHT22;20538;51.528;9.942;2024-01-11T14:07:40;-1.10;99.90
34279;DHT22;20538;51.528;9.942;2024-01-11T14:10:07;-1.10;99.90
34279;DHT22;20538;51.528;9.942;2024-01-11T14:12:40;-1.10;99.90
34279;DHT22;20538;51.528;9.942;2024-01-11T14:15:07;-1.20;99.90
34279;DHT22;20538;51.528;9.942;2024-01-11T14:17:36;-1.20;99.90
34279;DHT22;20538;51.528;9.942;2024-01-11T14:20:02;-1.20;99.90
34279;DHT22;20538;51.528;9.942;2024-01-11T14:22:28;-1.30;99.90
34279;DHT22;20538;51.528;9.942;2024-01-11T14:24:54;-1.30;99.90
34279;DHT22;20538;51.528;9.942;2024-01-11T14:27:20;-1.30;99.90
34279;DHT22;20538;51.528;9.942;2024-01-11T14:29:47;-1.30;99.90
34279;DHT22;20538;51.528;9.942;2024-01-11T14:32:13;-1.30;99.90
34279;DHT22;20538;51.528;9.942;2024-01-11T14:34:42;-1.20;99.90
34279;DHT22;20538;51.528;9.942;2024-01-11T14:37:07;-1.30;99.90
34279;DHT22;20538;51.528;9.942;2024-01-11T14:39:33;-1.30;99.90
34279;DHT22;20538;51.528;9.942;2024-01-11T14:41:59;-1.20;99.90
34279;DHT22;20538;51.528;9.942;2024-01-11T14:44:24;-1.20;99.90
34279;DHT22;20538;51.528;9.942;2024-01-11T14:46:50;-1.20;99.90
34279;DHT22;20538;51.528;9.942;2024-01-11T14:49:16;-1.20;99.90
34279;DHT22;20538;51.528;9.942;2024-01-11T14:51:41;-1.20;99.90
34279;DHT22;20538;51.528;9.942;2024-01-11T14:54:07;-1.20;99.90
34279;DHT22;20538;51.528;9.942;2024-01-11T14:56:33;-1.20;99.90
34279;DHT22;20538;51.528;9.942;2024-01-11T14:59:00;-1.20;99.90
34279;DHT22;20538;51.528;9.942;2024-01-11T15:01:26;-1.20;99.90
34279;DHT22;20538;51.528;9.942;2024-01-11T15:03:52;-1.30;99.90
34279;DHT22;20538;51.528;9.942;2024-01-11T15:06:18;-1.30;99.90
34279;DHT22;20538;51.528;9.942;2024-01-11T15:08:43;-1.30;99.90
34279;DHT22;20538;51.528;9.942;2024-01-11T15:11:09;-1.30;99.90
34279;DHT22;20538;51.528;9.942;2024-01-11T15:13:34;-1.30;99.90
34279;DHT22;20538;51.528;9.942;2024-01-11T15:16:01;-1.30;99.90
34279;DHT22;20538;51.528;9.942;2024-01-11T15:18:27;-1.30;99.90
34279;DHT22;20538;51.528;9.942;2024-01-11T15:20:52;-1.30;99.90
34279;DHT22;20538;51.528;9.942;2024-01-11T15:23:18;-1.30;99.90
34279;DHT22;20538;51.528;9.942;2024-01-11T15:25:44;-1.30;99.90
34279;DHT22;20538;51.528;9.942;2024-01-11T15:28:13;-1.20;99.90